sensor_id;sensor_type;location;lat;lon;timestamp;P1;durP1;ratioP1;P2;durP2;ratioP2
29838;SDS011;18669;53.356;-1.464;2023-01-26T00:01:07;9.48;;;2.25;;
29838;SDS011;18669;53.356;-1.464;2023-01-26T00:03:37;5.15;;;1.60;;
29838;SDS011;18669;53.356;-1.464;2023-01-26T00:06:04;5.95;;;1.75;;
29838;SDS011;18669;53.356;-1.464;2023-01-26T00:08:38;7.50;;;1.98;;
29838;SDS011;18669;53.356;-1.464;2023-01-26T00:11:09;7.45;;;2.00;;
29838;SDS011;18669;53.356;-1.464;2023-01-26T00:13:36;4.40;;;2.20;;
29838;SDS011;18669;53.356;-1.464;2023-01-26T00:16:03;8.95;;;2.72;;
29838;SDS011;18669;53.356;-1.464;2023-01-26T00:18:32;10.15;;;2.25;;
29838;SDS011;18669;53.356;-1.464;2023-01-26T00:20:59;7.13;;;2.53;;
29838;SDS011;18669;53.356;-1.464;2023-01-26T00:23:28;6.30;;;1.65;;
29838;SDS011;18669;53.356;-1.464;2023-01-26T00:25:55;10.35;;;1.92;;
29838;SDS011;18669;53.356;-1.464;2023-01-26T00:28:21;9.15;;;2.00;;
29838;SDS011;18669;53.356;-1.464;2023-01-26T00:33:13;9.43;;;2.03;;
29838;SDS011;18669;53.356;-1.464;2023-01-26T00:35:40;11.65;;;2.22;;
29838;SDS011;18669;53.356;-1.464;2023-01-26T00:38:12;6.35;;;1.95;;
29838;SDS011;18669;53.356;-1.464;2023-01-26T00:40:38;8.05;;;1.80;;
29838;SDS011;18669;53.356;-1.464;2023-01-26T00:43:05;6.68;;;2.05;;
29838;SDS011;18669;53.356;-1.464;2023-01-26T00:45:32;6.03;;;1.80;;
29838;SDS011;18669;53.356;-1.464;2023-01-26T00:47:59;5.50;;;1.35;;
29838;SDS011;18669;53.356;-1.464;2023-01-26T00:50:25;9.35;;;1.92;;
29838;SDS011;18669;53.356;-1.464;2023-01-26T00:52:51;6.40;;;2.00;;
29838;SDS011;18669;53.356;-1.464;2023-01-26T00:55:18;8.60;;;2.00;;
29838;SDS011;18669;53.356;-1.464;2023-01-26T00:57:45;4.22;;;1.60;;
29838;SDS011;18669;53.356;-1.464;2023-01-26T01:00:11;8.88;;;1.95;;
29838;SDS011;18669;53.356;-1.464;2023-01-26T01:02:41;8.93;;;2.00;;
29838;SDS011;18669;53.356;-1.464;2023-01-26T01:05:08;7.70;;;1.63;;
29838;SDS011;18669;53.356;-1.464;2023-01-26T01:07:34;14.13;;;2.72;;
29838;SDS011;18669;53.356;-1.464;2023-01-26T01:10:00;6.45;;;2.00;;
29838;SDS011;18669;53.356;-1.464;2023-01-26T01:12:26;5.55;;;1.63;;
29838;SDS011;18669;53.356;-1.464;2023-01-26T01:14:52;6.57;;;1.80;;
29838;SDS011;18669;53.356;-1.464;2023-01-26T01:17:18;7.35;;;1.95;;
29838;SDS011;18669;53.356;-1.464;2023-01-26T01:19:44;7.28;;;1.73;;
29838;SDS011;18669;53.356;-1.464;2023-01-26T01:22:10;6.43;;;1.65;;
29838;SDS011;18669;53.356;-1.464;2023-01-26T01:24:36;7.50;;;1.65;;
29838;SDS011;18669;53.356;-1.464;2023-01-26T01:27:02;4.90;;;1.55;;
29838;SDS011;18669;53.356;-1.464;2023-01-26T01:29:29;6.28;;;1.65;;
29838;SDS011;18669;53.356;-1.464;2023-01-26T01:31:55;7.13;;;2.05;;
29838;SDS011;18669;53.356;-1.464;2023-01-26T01:34:21;6.90;;;1.58;;
29838;SDS011;18669;53.356;-1.464;2023-01-26T01:36:47;7.30;;;1.90;;
29838;SDS011;18669;53.356;-1.464;2023-01-26T01:39:14;7.22;;;1.60;;
29838;SDS011;18669;53.356;-1.464;2023-01-26T01:41:40;7.60;;;2.15;;
29838;SDS011;18669;53.356;-1.464;2023-01-26T01:44:24;7.03;;;1.65;;
29838;SDS011;18669;53.356;-1.464;2023-01-26T01:46:55;5.13;;;1.77;;
29838;SDS011;18669;53.356;-1.464;2023-01-26T01:49:29;7.60;;;2.20;;
29838;SDS011;18669;53.356;-1.464;2023-01-26T01:52:33;11.07;;;1.70;;
29838;SDS011;18669;53.356;-1.464;2023-01-26T01:57:30;4.63;;;1.65;;
29838;SDS011;18669;53.356;-1.464;2023-01-26T02:00:10;5.35;;;1.55;;
29838;SDS011;18669;53.356;-1.464;2023-01-26T02:02:38;5.13;;;1.40;;
29838;SDS011;18669;53.356;-1.464;2023-01-26T02:05:12;6.30;;;1.83;;
29838;SDS011;18669;53.356;-1.464;2023-01-26T02:07:50;4.57;;;1.60;;
29838;SDS011;18669;53.356;-1.464;2023-01-26T02:12:47;7.68;;;1.45;;
29838;SDS011;18669;53.356;-1.464;2023-01-26T02:15:18;10.95;;;1.65;;
29838;SDS011;18669;53.356;-1.464;2023-01-26T02:17:44;5.65;;;2.00;;
29838;SDS011;18669;53.356;-1.464;2023-01-26T02:20:11;6.72;;;2.00;;
29838;SDS011;18669;53.356;-1.464;2023-01-26T02:28:05;10.93;;;1.90;;
29838;SDS011;18669;53.356;-1.464;2023-01-26T02:30:31;11.95;;;2.38;;
29838;SDS011;18669;53.356;-1.464;2023-01-26T02:32:57;5.80;;;1.67;;
29838;SDS011;18669;53.356;-1.464;2023-01-26T02:35:23;6.85;;;1.63;;
29838;SDS011;18669;53.356;-1.464;2023-01-26T02:37:49;13.25;;;2.00;;
29838;SDS011;18669;53.356;-1.464;2023-01-26T02:42:44;6.50;;;1.67;;
29838;SDS011;18669;53.356;-1.464;2023-01-26T02:45:11;7.80;;;1.88;;
29838;SDS011;18669;53.356;-1.464;2023-01-26T02:47:40;6.03;;;1.50;;
29838;SDS011;18669;53.356;-1.464;2023-01-26T02:52:33;7.43;;;1.60;;
29838;SDS011;18669;53.356;-1.464;2023-01-26T02:54:59;5.28;;;1.50;;
29838;SDS011;18669;53.356;-1.464;2023-01-26T02:57:44;7.07;;;1.48;;
29838;SDS011;18669;53.356;-1.464;2023-01-26T03:00:14;8.15;;;1.77;;
29838;SDS011;18669;53.356;-1.464;2023-01-26T03:02:45;6.15;;;1.63;;
29838;SDS011;18669;53.356;-1.464;2023-01-26T03:05:12;9.15;;;2.22;;
29838;SDS011;18669;53.356;-1.464;2023-01-26T03:07:38;6.22;;;1.80;;
29838;SDS011;18669;53.356;-1.464;2023-01-26T03:10:04;4.15;;;1.45;;
29838;SDS011;18669;53.356;-1.464;2023-01-26T03:12:31;6.32;;;1.60;;
29838;SDS011;18669;53.356;-1.464;2023-01-26T03:14:57;9.07;;;1.55;;
29838;SDS011;18669;53.356;-1.464;2023-01-26T03:17:41;4.05;;;1.35;;
29838;SDS011;18669;53.356;-1.464;2023-01-26T03:20:08;2.25;;;1.10;;
29838;SDS011;18669;53.356;-1.464;2023-01-26T03:22:53;4.95;;;1.75;;
29838;SDS011;18669;53.356;-1.464;2023-01-26T03:25:38;3.78;;;1.13;;
29838;SDS011;18669;53.356;-1.464;2023-01-26T03:28:23;3.65;;;1.40;;
29838;SDS011;18669;53.356;-1.464;2023-01-26T03:30:51;3.65;;;1.27;;
29838;SDS011;18669;53.356;-1.464;2023-01-26T03:33:18;4.25;;;1.10;;
29838;SDS011;18669;53.356;-1.464;2023-01-26T03:35:45;7.95;;;1.65;;
29838;SDS011;18669;53.356;-1.464;2023-01-26T03:38:12;7.95;;;1.40;;
29838;SDS011;18669;53.356;-1.464;2023-01-26T03:40:38;3.65;;;1.40;;
29838;SDS011;18669;53.356;-1.464;2023-01-26T03:43:23;3.75;;;1.30;;
29838;SDS011;18669;53.356;-1.464;2023-01-26T03:46:07;5.07;;;1.13;;
29838;SDS011;18669;53.356;-1.464;2023-01-26T03:48:53;4.88;;;1.23;;
29838;SDS011;18669;53.356;-1.464;2023-01-26T03:51:37;4.93;;;1.20;;
29838;SDS011;18669;53.356;-1.464;2023-01-26T03:54:22;5.88;;;1.20;;
29838;SDS011;18669;53.356;-1.464;2023-01-26T03:57:07;8.77;;;1.20;;
29838;SDS011;18669;53.356;-1.464;2023-01-26T03:59:33;9.43;;;1.60;;
29838;SDS011;18669;53.356;-1.464;2023-01-26T04:02:06;5.68;;;1.35;;
29838;SDS011;18669;53.356;-1.464;2023-01-26T04:04:54;6.57;;;1.30;;
29838;SDS011;18669;53.356;-1.464;2023-01-26T04:07:39;4.07;;;1.08;;
29838;SDS011;18669;53.356;-1.464;2023-01-26T04:10:24;5.70;;;1.30;;
29838;SDS011;18669;53.356;-1.464;2023-01-26T04:12:51;2.70;;;0.77;;
29838;SDS011;18669;53.356;-1.464;2023-01-26T04:15:36;4.13;;;1.35;;
29838;SDS011;18669;53.356;-1.464;2023-01-26T04:18:21;2.80;;;0.95;;
29838;SDS011;18669;53.356;-1.464;2023-01-26T04:21:08;5.72;;;1.20;;
29838;SDS011;18669;53.356;-1.464;2023-01-26T04:23:52;4.93;;;0.95;;
29838;SDS011;18669;53.356;-1.464;2023-01-26T04:26:29;6.18;;;1.10;;
29838;SDS011;18669;53.356;-1.464;2023-01-26T04:29:03;3.72;;;1.30;;
29838;SDS011;18669;53.356;-1.464;2023-01-26T04:31:33;4.15;;;0.88;;
29838;SDS011;18669;53.356;-1.464;2023-01-26T04:34:00;3.97;;;1.20;;
29838;SDS011;18669;53.356;-1.464;2023-01-26T04:36:34;10.88;;;1.20;;
29838;SDS011;18669;53.356;-1.464;2023-01-26T04:39:00;3.88;;;1.10;;
29838;SDS011;18669;53.356;-1.464;2023-01-26T04:41:27;2.97;;;1.15;;
29838;SDS011;18669;53.356;-1.464;2023-01-26T04:43:54;4.43;;;0.80;;
29838;SDS011;18669;53.356;-1.464;2023-01-26T04:46:21;5.32;;;0.80;;
29838;SDS011;18669;53.356;-1.464;2023-01-26T04:48:47;3.67;;;0.77;;
29838;SDS011;18669;53.356;-1.464;2023-01-26T04:51:14;4.03;;;0.88;;
29838;SDS011;18669;53.356;-1.464;2023-01-26T04:53:42;3.40;;;0.80;;
29838;SDS011;18669;53.356;-1.464;2023-01-26T04:56:16;1.58;;;0.88;;
29838;SDS011;18669;53.356;-1.464;2023-01-26T04:58:43;3.95;;;0.73;;
29838;SDS011;18669;53.356;-1.464;2023-01-26T05:01:09;4.05;;;1.00;;
29838;SDS011;18669;53.356;-1.464;2023-01-26T05:03:35;5.82;;;1.25;;
29838;SDS011;18669;53.356;-1.464;2023-01-26T05:06:02;3.05;;;0.75;;
29838;SDS011;18669;53.356;-1.464;2023-01-26T05:08:28;2.90;;;1.10;;
29838;SDS011;18669;53.356;-1.464;2023-01-26T05:10:54;5.45;;;0.90;;
29838;SDS011;18669;53.356;-1.464;2023-01-26T05:13:20;7.57;;;0.77;;
29838;SDS011;18669;53.356;-1.464;2023-01-26T05:15:46;3.22;;;0.70;;
29838;SDS011;18669;53.356;-1.464;2023-01-26T05:18:13;5.22;;;0.95;;
29838;SDS011;18669;53.356;-1.464;2023-01-26T05:20:39;3.42;;;1.00;;
29838;SDS011;18669;53.356;-1.464;2023-01-26T05:23:05;4.15;;;1.30;;
29838;SDS011;18669;53.356;-1.464;2023-01-26T05:25:31;4.15;;;0.93;;
29838;SDS011;18669;53.356;-1.464;2023-01-26T05:27:57;6.70;;;0.88;;
29838;SDS011;18669;53.356;-1.464;2023-01-26T05:30:24;4.90;;;0.95;;
29838;SDS011;18669;53.356;-1.464;2023-01-26T05:32:50;4.20;;;0.90;;
29838;SDS011;18669;53.356;-1.464;2023-01-26T05:35:16;5.22;;;1.20;;
29838;SDS011;18669;53.356;-1.464;2023-01-26T05:37:43;5.65;;;1.02;;
29838;SDS011;18669;53.356;-1.464;2023-01-26T05:40:10;4.40;;;0.90;;
29838;SDS011;18669;53.356;-1.464;2023-01-26T05:42:37;5.55;;;1.17;;
29838;SDS011;18669;53.356;-1.464;2023-01-26T05:45:03;3.35;;;0.88;;
29838;SDS011;18669;53.356;-1.464;2023-01-26T05:47:30;2.67;;;1.33;;
29838;SDS011;18669;53.356;-1.464;2023-01-26T05:49:56;6.05;;;1.00;;
29838;SDS011;18669;53.356;-1.464;2023-01-26T05:52:22;5.35;;;0.90;;
29838;SDS011;18669;53.356;-1.464;2023-01-26T05:54:48;3.42;;;0.95;;
29838;SDS011;18669;53.356;-1.464;2023-01-26T05:57:17;3.25;;;0.80;;
29838;SDS011;18669;53.356;-1.464;2023-01-26T05:59:43;2.50;;;0.80;;
29838;SDS011;18669;53.356;-1.464;2023-01-26T06:02:12;3.92;;;1.10;;
29838;SDS011;18669;53.356;-1.464;2023-01-26T06:04:39;4.65;;;1.67;;
29838;SDS011;18669;53.356;-1.464;2023-01-26T06:07:05;5.28;;;1.20;;
29838;SDS011;18669;53.356;-1.464;2023-01-26T06:09:31;2.72;;;0.98;;
29838;SDS011;18669;53.356;-1.464;2023-01-26T06:11:57;4.82;;;1.00;;
29838;SDS011;18669;53.356;-1.464;2023-01-26T06:14:23;3.25;;;0.82;;
29838;SDS011;18669;53.356;-1.464;2023-01-26T06:16:49;4.30;;;1.00;;
29838;SDS011;18669;53.356;-1.464;2023-01-26T06:19:16;5.90;;;0.85;;
29838;SDS011;18669;53.356;-1.464;2023-01-26T06:21:43;3.13;;;0.80;;
29838;SDS011;18669;53.356;-1.464;2023-01-26T06:24:09;7.57;;;1.20;;
29838;SDS011;18669;53.356;-1.464;2023-01-26T06:26:35;2.33;;;0.88;;
29838;SDS011;18669;53.356;-1.464;2023-01-26T06:29:02;3.78;;;1.00;;
29838;SDS011;18669;53.356;-1.464;2023-01-26T06:31:28;5.22;;;0.80;;
29838;SDS011;18669;53.356;-1.464;2023-01-26T06:33:54;3.60;;;0.82;;
29838;SDS011;18669;53.356;-1.464;2023-01-26T06:36:21;6.18;;;1.00;;
29838;SDS011;18669;53.356;-1.464;2023-01-26T06:41:14;7.57;;;1.23;;
29838;SDS011;18669;53.356;-1.464;2023-01-26T06:43:43;6.05;;;1.30;;
29838;SDS011;18669;53.356;-1.464;2023-01-26T06:46:11;4.07;;;1.27;;
29838;SDS011;18669;53.356;-1.464;2023-01-26T06:48:38;6.28;;;1.10;;
29838;SDS011;18669;53.356;-1.464;2023-01-26T06:53:51;3.47;;;0.70;;
29838;SDS011;18669;53.356;-1.464;2023-01-26T06:56:19;10.45;;;1.63;;
29838;SDS011;18669;53.356;-1.464;2023-01-26T06:58:47;6.13;;;1.10;;
29838;SDS011;18669;53.356;-1.464;2023-01-26T07:01:21;3.28;;;1.05;;
29838;SDS011;18669;53.356;-1.464;2023-01-26T07:03:51;8.20;;;1.30;;
29838;SDS011;18669;53.356;-1.464;2023-01-26T07:06:22;7.28;;;1.60;;
29838;SDS011;18669;53.356;-1.464;2023-01-26T07:08:48;9.70;;;1.48;;
29838;SDS011;18669;53.356;-1.464;2023-01-26T07:11:14;10.38;;;1.42;;
29838;SDS011;18669;53.356;-1.464;2023-01-26T07:13:42;4.63;;;1.20;;
29838;SDS011;18669;53.356;-1.464;2023-01-26T07:16:10;6.55;;;1.58;;
29838;SDS011;18669;53.356;-1.464;2023-01-26T07:18:38;7.55;;;1.02;;
29838;SDS011;18669;53.356;-1.464;2023-01-26T07:21:05;7.88;;;1.33;;
29838;SDS011;18669;53.356;-1.464;2023-01-26T07:23:34;13.05;;;1.42;;
29838;SDS011;18669;53.356;-1.464;2023-01-26T07:26:00;5.68;;;1.20;;
29838;SDS011;18669;53.356;-1.464;2023-01-26T07:28:27;13.48;;;1.50;;
29838;SDS011;18669;53.356;-1.464;2023-01-26T07:31:02;13.68;;;1.83;;
29838;SDS011;18669;53.356;-1.464;2023-01-26T07:33:29;4.95;;;1.48;;
29838;SDS011;18669;53.356;-1.464;2023-01-26T07:35:57;5.30;;;1.50;;
29838;SDS011;18669;53.356;-1.464;2023-01-26T07:38:23;8.20;;;1.55;;
29838;SDS011;18669;53.356;-1.464;2023-01-26T07:40:51;5.35;;;1.23;;
29838;SDS011;18669;53.356;-1.464;2023-01-26T07:43:18;7.00;;;1.50;;
29838;SDS011;18669;53.356;-1.464;2023-01-26T07:45:48;8.95;;;1.42;;
29838;SDS011;18669;53.356;-1.464;2023-01-26T07:48:20;5.57;;;1.30;;
29838;SDS011;18669;53.356;-1.464;2023-01-26T07:50:48;7.35;;;1.85;;
29838;SDS011;18669;53.356;-1.464;2023-01-26T07:53:15;11.48;;;2.90;;
29838;SDS011;18669;53.356;-1.464;2023-01-26T07:55:44;8.20;;;1.30;;
29838;SDS011;18669;53.356;-1.464;2023-01-26T07:58:13;6.95;;;1.70;;
29838;SDS011;18669;53.356;-1.464;2023-01-26T08:03:06;10.75;;;1.65;;
29838;SDS011;18669;53.356;-1.464;2023-01-26T08:05:32;6.95;;;1.63;;
29838;SDS011;18669;53.356;-1.464;2023-01-26T08:07:58;9.77;;;1.70;;
29838;SDS011;18669;53.356;-1.464;2023-01-26T08:10:25;10.82;;;2.00;;
29838;SDS011;18669;53.356;-1.464;2023-01-26T08:12:52;8.73;;;1.27;;
29838;SDS011;18669;53.356;-1.464;2023-01-26T08:15:19;9.18;;;1.33;;
29838;SDS011;18669;53.356;-1.464;2023-01-26T08:17:45;6.57;;;1.63;;
29838;SDS011;18669;53.356;-1.464;2023-01-26T08:20:11;21.70;;;2.85;;
29838;SDS011;18669;53.356;-1.464;2023-01-26T08:22:38;15.63;;;2.30;;
29838;SDS011;18669;53.356;-1.464;2023-01-26T08:25:05;6.82;;;1.50;;
29838;SDS011;18669;53.356;-1.464;2023-01-26T08:27:31;12.63;;;1.63;;
29838;SDS011;18669;53.356;-1.464;2023-01-26T08:29:57;7.43;;;1.50;;
29838;SDS011;18669;53.356;-1.464;2023-01-26T08:32:24;12.88;;;2.03;;
29838;SDS011;18669;53.356;-1.464;2023-01-26T08:34:50;14.07;;;2.22;;
29838;SDS011;18669;53.356;-1.464;2023-01-26T08:37:16;11.63;;;1.88;;
29838;SDS011;18669;53.356;-1.464;2023-01-26T08:39:42;9.57;;;1.52;;
29838;SDS011;18669;53.356;-1.464;2023-01-26T08:42:08;7.70;;;1.45;;
29838;SDS011;18669;53.356;-1.464;2023-01-26T08:44:35;10.10;;;2.08;;
29838;SDS011;18669;53.356;-1.464;2023-01-26T08:47:01;11.27;;;1.90;;
29838;SDS011;18669;53.356;-1.464;2023-01-26T08:49:27;8.70;;;1.75;;
29838;SDS011;18669;53.356;-1.464;2023-01-26T08:51:53;10.25;;;1.83;;
29838;SDS011;18669;53.356;-1.464;2023-01-26T08:54:19;9.55;;;1.60;;
29838;SDS011;18669;53.356;-1.464;2023-01-26T08:56:45;12.93;;;2.50;;
29838;SDS011;18669;53.356;-1.464;2023-01-26T08:59:11;13.25;;;2.28;;
29838;SDS011;18669;53.356;-1.464;2023-01-26T09:01:37;13.95;;;1.95;;
29838;SDS011;18669;53.356;-1.464;2023-01-26T09:04:03;17.55;;;1.85;;
29838;SDS011;18669;53.356;-1.464;2023-01-26T09:06:29;8.23;;;1.63;;
29838;SDS011;18669;53.356;-1.464;2023-01-26T09:08:57;10.90;;;1.73;;
29838;SDS011;18669;53.356;-1.464;2023-01-26T09:13:49;13.00;;;2.70;;
29838;SDS011;18669;53.356;-1.464;2023-01-26T09:16:21;15.68;;;2.03;;
29838;SDS011;18669;53.356;-1.464;2023-01-26T09:18:51;10.82;;;1.90;;
29838;SDS011;18669;53.356;-1.464;2023-01-26T09:21:18;9.13;;;1.60;;
29838;SDS011;18669;53.356;-1.464;2023-01-26T09:23:45;13.13;;;2.22;;
29838;SDS011;18669;53.356;-1.464;2023-01-26T09:26:11;12.30;;;1.73;;
29838;SDS011;18669;53.356;-1.464;2023-01-26T09:28:37;12.10;;;1.60;;
29838;SDS011;18669;53.356;-1.464;2023-01-26T09:31:04;9.80;;;1.67;;
29838;SDS011;18669;53.356;-1.464;2023-01-26T09:33:32;8.20;;;1.63;;
29838;SDS011;18669;53.356;-1.464;2023-01-26T09:36:02;7.28;;;1.60;;
29838;SDS011;18669;53.356;-1.464;2023-01-26T09:38:33;9.63;;;2.05;;
29838;SDS011;18669;53.356;-1.464;2023-01-26T09:43:36;11.95;;;1.90;;
29838;SDS011;18669;53.356;-1.464;2023-01-26T09:51:39;11.82;;;2.10;;
29838;SDS011;18669;53.356;-1.464;2023-01-26T09:54:29;11.48;;;2.15;;
29838;SDS011;18669;53.356;-1.464;2023-01-26T09:57:02;11.85;;;2.28;;
29838;SDS011;18669;53.356;-1.464;2023-01-26T10:02:40;8.40;;;1.40;;
29838;SDS011;18669;53.356;-1.464;2023-01-26T10:05:19;5.20;;;1.48;;
29838;SDS011;18669;53.356;-1.464;2023-01-26T10:07:57;7.20;;;1.58;;
29838;SDS011;18669;53.356;-1.464;2023-01-26T10:10:29;8.70;;;1.50;;
29838;SDS011;18669;53.356;-1.464;2023-01-26T10:12:59;9.13;;;1.90;;
29838;SDS011;18669;53.356;-1.464;2023-01-26T10:17:51;10.35;;;1.80;;
29838;SDS011;18669;53.356;-1.464;2023-01-26T10:22:58;12.50;;;1.65;;
29838;SDS011;18669;53.356;-1.464;2023-01-26T10:25:33;9.07;;;1.70;;
29838;SDS011;18669;53.356;-1.464;2023-01-26T10:28:10;11.98;;;1.55;;
29838;SDS011;18669;53.356;-1.464;2023-01-26T10:30:39;13.80;;;2.60;;
29838;SDS011;18669;53.356;-1.464;2023-01-26T10:33:14;12.75;;;2.22;;
29838;SDS011;18669;53.356;-1.464;2023-01-26T10:35:43;8.27;;;1.60;;
29838;SDS011;18669;53.356;-1.464;2023-01-26T10:38:25;13.18;;;2.10;;
29838;SDS011;18669;53.356;-1.464;2023-01-26T10:40:52;10.23;;;2.05;;
29838;SDS011;18669;53.356;-1.464;2023-01-26T10:45:45;10.80;;;1.80;;
29838;SDS011;18669;53.356;-1.464;2023-01-26T10:50:46;10.57;;;1.70;;
29838;SDS011;18669;53.356;-1.464;2023-01-26T10:53:14;16.60;;;2.10;;
29838;SDS011;18669;53.356;-1.464;2023-01-26T11:01:10;8.25;;;1.42;;
29838;SDS011;18669;53.356;-1.464;2023-01-26T11:06:32;11.10;;;1.98;;
29838;SDS011;18669;53.356;-1.464;2023-01-26T11:11:55;12.82;;;2.70;;
29838;SDS011;18669;53.356;-1.464;2023-01-26T11:14:22;9.43;;;2.42;;
29838;SDS011;18669;53.356;-1.464;2023-01-26T11:22:12;17.13;;;2.92;;
29838;SDS011;18669;53.356;-1.464;2023-01-26T11:25:23;15.85;;;2.25;;
29838;SDS011;18669;53.356;-1.464;2023-01-26T11:30:51;6.47;;;2.00;;
29838;SDS011;18669;53.356;-1.464;2023-01-26T11:36:30;14.15;;;2.75;;
29838;SDS011;18669;53.356;-1.464;2023-01-26T11:38:56;21.27;;;3.00;;
29838;SDS011;18669;53.356;-1.464;2023-01-26T11:47:26;14.65;;;3.25;;
29838;SDS011;18669;53.356;-1.464;2023-01-26T11:50:05;12.70;;;2.58;;
29838;SDS011;18669;53.356;-1.464;2023-01-26T11:55:57;16.45;;;3.00;;
29838;SDS011;18669;53.356;-1.464;2023-01-26T12:03:54;19.52;;;2.97;;
29838;SDS011;18669;53.356;-1.464;2023-01-26T12:06:36;13.18;;;2.40;;
29838;SDS011;18669;53.356;-1.464;2023-01-26T12:09:06;14.30;;;3.70;;
29838;SDS011;18669;53.356;-1.464;2023-01-26T12:12:04;16.10;;;2.53;;
29838;SDS011;18669;53.356;-1.464;2023-01-26T12:17:26;18.02;;;3.03;;
29838;SDS011;18669;53.356;-1.464;2023-01-26T12:22:51;17.92;;;3.92;;
29838;SDS011;18669;53.356;-1.464;2023-01-26T12:25:40;17.42;;;2.83;;
29838;SDS011;18669;53.356;-1.464;2023-01-26T12:28:14;12.10;;;2.40;;
29838;SDS011;18669;53.356;-1.464;2023-01-26T12:33:31;16.35;;;2.13;;
29838;SDS011;18669;53.356;-1.464;2023-01-26T12:43:55;14.02;;;2.63;;
29838;SDS011;18669;53.356;-1.464;2023-01-26T12:46:26;13.48;;;1.90;;
29838;SDS011;18669;53.356;-1.464;2023-01-26T12:49:03;7.65;;;1.67;;
29838;SDS011;18669;53.356;-1.464;2023-01-26T12:51:39;8.95;;;1.90;;
29838;SDS011;18669;53.356;-1.464;2023-01-26T12:57:05;11.63;;;2.20;;
29838;SDS011;18669;53.356;-1.464;2023-01-26T12:59:38;8.25;;;1.88;;
29838;SDS011;18669;53.356;-1.464;2023-01-26T13:02:09;12.02;;;2.20;;
29838;SDS011;18669;53.356;-1.464;2023-01-26T13:04:38;10.48;;;2.60;;
29838;SDS011;18669;53.356;-1.464;2023-01-26T13:10:07;9.68;;;2.28;;
29838;SDS011;18669;53.356;-1.464;2023-01-26T13:15:12;14.27;;;2.70;;
29838;SDS011;18669;53.356;-1.464;2023-01-26T13:17:40;11.70;;;2.33;;
29838;SDS011;18669;53.356;-1.464;2023-01-26T13:20:14;12.32;;;2.10;;
29838;SDS011;18669;53.356;-1.464;2023-01-26T13:22:48;9.50;;;2.10;;
29838;SDS011;18669;53.356;-1.464;2023-01-26T13:25:15;9.77;;;2.10;;
29838;SDS011;18669;53.356;-1.464;2023-01-26T13:27:56;5.20;;;1.73;;
29838;SDS011;18669;53.356;-1.464;2023-01-26T13:33:10;8.32;;;2.42;;
29838;SDS011;18669;53.356;-1.464;2023-01-26T13:35:49;10.88;;;1.98;;
29838;SDS011;18669;53.356;-1.464;2023-01-26T13:38:18;9.90;;;2.40;;
29838;SDS011;18669;53.356;-1.464;2023-01-26T13:41:01;10.88;;;1.95;;
29838;SDS011;18669;53.356;-1.464;2023-01-26T13:44:35;8.73;;;1.90;;
29838;SDS011;18669;53.356;-1.464;2023-01-26T13:46:39;9.73;;;2.15;;
29838;SDS011;18669;53.356;-1.464;2023-01-26T13:49:26;7.57;;;1.45;;
29838;SDS011;18669;53.356;-1.464;2023-01-26T13:52:02;8.65;;;2.28;;
29838;SDS011;18669;53.356;-1.464;2023-01-26T13:54:28;8.27;;;1.77;;
29838;SDS011;18669;53.356;-1.464;2023-01-26T13:59:31;6.10;;;1.57;;
29838;SDS011;18669;53.356;-1.464;2023-01-26T14:01:57;9.10;;;1.60;;
29838;SDS011;18669;53.356;-1.464;2023-01-26T14:04:28;5.47;;;1.00;;
29838;SDS011;18669;53.356;-1.464;2023-01-26T14:07:06;6.60;;;1.05;;
29838;SDS011;18669;53.356;-1.464;2023-01-26T14:10:11;7.28;;;1.67;;
29838;SDS011;18669;53.356;-1.464;2023-01-26T14:12:43;4.40;;;1.38;;
29838;SDS011;18669;53.356;-1.464;2023-01-26T14:15:21;3.38;;;1.13;;
29838;SDS011;18669;53.356;-1.464;2023-01-26T14:17:50;2.72;;;1.33;;
29838;SDS011;18669;53.356;-1.464;2023-01-26T14:20:26;2.95;;;1.20;;
29838;SDS011;18669;53.356;-1.464;2023-01-26T14:28:27;8.57;;;0.93;;
29838;SDS011;18669;53.356;-1.464;2023-01-26T14:31:00;2.90;;;1.08;;
29838;SDS011;18669;53.356;-1.464;2023-01-26T14:33:31;2.67;;;1.13;;
29838;SDS011;18669;53.356;-1.464;2023-01-26T14:36:00;6.35;;;1.50;;
29838;SDS011;18669;53.356;-1.464;2023-01-26T14:38:28;5.40;;;1.10;;
29838;SDS011;18669;53.356;-1.464;2023-01-26T14:40:58;2.28;;;1.00;;
29838;SDS011;18669;53.356;-1.464;2023-01-26T14:43:26;3.00;;;1.13;;
29838;SDS011;18669;53.356;-1.464;2023-01-26T14:45:54;5.18;;;1.30;;
29838;SDS011;18669;53.356;-1.464;2023-01-26T14:51:00;5.72;;;1.40;;
29838;SDS011;18669;53.356;-1.464;2023-01-26T14:53:32;4.70;;;1.40;;
29838;SDS011;18669;53.356;-1.464;2023-01-26T14:55:58;5.22;;;1.95;;
29838;SDS011;18669;53.356;-1.464;2023-01-26T14:58:27;6.28;;;1.98;;
29838;SDS011;18669;53.356;-1.464;2023-01-26T15:00:56;5.95;;;2.35;;
29838;SDS011;18669;53.356;-1.464;2023-01-26T15:03:26;6.95;;;3.63;;
29838;SDS011;18669;53.356;-1.464;2023-01-26T15:06:04;6.63;;;2.95;;
29838;SDS011;18669;53.356;-1.464;2023-01-26T15:08:50;8.70;;;2.88;;
29838;SDS011;18669;53.356;-1.464;2023-01-26T15:11:33;5.20;;;2.80;;
29838;SDS011;18669;53.356;-1.464;2023-01-26T15:17:35;7.32;;;2.60;;
29838;SDS011;18669;53.356;-1.464;2023-01-26T15:20:02;5.68;;;2.00;;
29838;SDS011;18669;53.356;-1.464;2023-01-26T15:22:35;6.53;;;2.03;;
29838;SDS011;18669;53.356;-1.464;2023-01-26T15:27:42;7.20;;;1.70;;
29838;SDS011;18669;53.356;-1.464;2023-01-26T15:30:16;7.20;;;1.63;;
29838;SDS011;18669;53.356;-1.464;2023-01-26T15:32:43;6.00;;;2.00;;
29838;SDS011;18669;53.356;-1.464;2023-01-26T15:35:17;10.75;;;2.80;;
29838;SDS011;18669;53.356;-1.464;2023-01-26T15:37:43;6.00;;;2.45;;
29838;SDS011;18669;53.356;-1.464;2023-01-26T15:40:10;8.32;;;1.83;;
29838;SDS011;18669;53.356;-1.464;2023-01-26T15:42:36;7.88;;;2.38;;
29838;SDS011;18669;53.356;-1.464;2023-01-26T15:45:02;8.35;;;1.98;;
29838;SDS011;18669;53.356;-1.464;2023-01-26T15:47:35;6.55;;;2.08;;
29838;SDS011;18669;53.356;-1.464;2023-01-26T15:50:01;7.45;;;2.25;;
29838;SDS011;18669;53.356;-1.464;2023-01-26T15:52:27;8.02;;;2.65;;
29838;SDS011;18669;53.356;-1.464;2023-01-26T15:54:54;9.77;;;2.83;;
29838;SDS011;18669;53.356;-1.464;2023-01-26T15:57:21;9.50;;;3.08;;
29838;SDS011;18669;53.356;-1.464;2023-01-26T15:59:46;11.25;;;2.60;;
29838;SDS011;18669;53.356;-1.464;2023-01-26T16:02:14;11.95;;;3.22;;
29838;SDS011;18669;53.356;-1.464;2023-01-26T16:04:41;7.50;;;2.85;;
29838;SDS011;18669;53.356;-1.464;2023-01-26T16:07:11;5.40;;;2.60;;
29838;SDS011;18669;53.356;-1.464;2023-01-26T16:09:43;11.45;;;3.90;;
29838;SDS011;18669;53.356;-1.464;2023-01-26T16:14:38;8.85;;;2.60;;
29838;SDS011;18669;53.356;-1.464;2023-01-26T16:17:10;10.40;;;4.00;;
29838;SDS011;18669;53.356;-1.464;2023-01-26T16:19:39;10.82;;;3.63;;
29838;SDS011;18669;53.356;-1.464;2023-01-26T16:22:05;38.10;;;18.08;;
29838;SDS011;18669;53.356;-1.464;2023-01-26T16:24:31;40.63;;;20.02;;
29838;SDS011;18669;53.356;-1.464;2023-01-26T16:26:57;23.85;;;11.88;;
29838;SDS011;18669;53.356;-1.464;2023-01-26T16:29:23;15.15;;;6.45;;
29838;SDS011;18669;53.356;-1.464;2023-01-26T16:31:49;13.95;;;3.30;;
29838;SDS011;18669;53.356;-1.464;2023-01-26T16:34:15;9.38;;;2.50;;
29838;SDS011;18669;53.356;-1.464;2023-01-26T16:36:41;6.15;;;2.70;;
29838;SDS011;18669;53.356;-1.464;2023-01-26T16:39:07;7.90;;;3.22;;
29838;SDS011;18669;53.356;-1.464;2023-01-26T16:41:33;6.03;;;2.47;;
29838;SDS011;18669;53.356;-1.464;2023-01-26T16:44:01;9.52;;;2.63;;
29838;SDS011;18669;53.356;-1.464;2023-01-26T16:46:29;6.85;;;2.00;;
29838;SDS011;18669;53.356;-1.464;2023-01-26T16:48:55;6.47;;;1.80;;
29838;SDS011;18669;53.356;-1.464;2023-01-26T16:51:25;8.68;;;2.85;;
29838;SDS011;18669;53.356;-1.464;2023-01-26T16:53:54;6.18;;;2.05;;
29838;SDS011;18669;53.356;-1.464;2023-01-26T16:56:21;7.18;;;2.30;;
29838;SDS011;18669;53.356;-1.464;2023-01-26T16:58:48;3.97;;;1.90;;
29838;SDS011;18669;53.356;-1.464;2023-01-26T17:01:24;6.68;;;2.20;;